createdAt,value
2018-05-11T00:02:23.317Z,42.70
2018-05-11T00:04:52.435Z,95.37
2018-05-11T00:07:21.592Z,137.13
2018-05-11T00:09:50.733Z,78.43
2018-05-11T00:12:19.981Z,115.00
2018-05-11T00:14:49.137Z,101.77
2018-05-11T00:17:18.299Z,119.43
2018-05-11T00:19:47.429Z,102.43
2018-05-11T00:22:16.620Z,115.23
2018-05-11T00:24:45.743Z,56.40
2018-05-11T00:27:14.861Z,61.27
2018-05-11T00:29:44.049Z,25.30
2018-05-11T00:32:13.265Z,20.17
2018-05-11T00:34:42.396Z,21.30
2018-05-11T00:37:11.522Z,20.90
2018-05-11T00:39:40.679Z,21.80
2018-05-11T00:42:09.790Z,21.70
2018-05-11T00:44:39.035Z,29.43
2018-05-11T00:47:08.247Z,34.03
2018-05-11T00:49:37.382Z,27.37
2018-05-11T00:52:06.534Z,26.73
2018-05-11T00:54:35.821Z,27.00
2018-05-11T00:57:04.940Z,31.37
2018-05-11T00:59:34.078Z,31.17
2018-05-11T01:02:03.295Z,33.07
2018-05-11T01:04:32.503Z,25.50
2018-05-11T01:07:01.645Z,22.60
2018-05-11T01:09:30.796Z,22.63
2018-05-11T01:11:59.968Z,23.60
2018-05-11T01:14:29.148Z,25.07
2018-05-11T01:16:58.315Z,27.30
2018-05-11T01:19:27.415Z,32.77
2018-05-11T01:21:56.552Z,29.93
2018-05-11T01:24:25.734Z,32.30
2018-05-11T01:26:54.876Z,34.47
2018-05-11T01:29:24.020Z,28.03
2018-05-11T01:31:53.172Z,23.30
2018-05-11T01:34:22.312Z,22.60
2018-05-11T01:36:51.432Z,23.97
2018-05-11T01:39:20.629Z,24.07
2018-05-11T01:41:49.738Z,24.77
2018-05-11T01:44:18.857Z,23.87
2018-05-11T01:46:47.995Z,25.87
2018-05-11T01:49:17.142Z,24.20
2018-05-11T01:51:46.286Z,26.00
2018-05-11T01:54:15.460Z,24.90
2018-05-11T01:56:44.601Z,23.87
2018-05-11T01:59:13.715Z,24.50
2018-05-11T02:01:42.862Z,25.37
2018-05-11T02:04:12.017Z,24.90
2018-05-11T02:06:41.154Z,26.30
2018-05-11T02:09:10.325Z,27.10
2018-05-11T02:11:39.451Z,25.00
2018-05-11T02:14:08.578Z,24.70
2018-05-11T02:16:37.784Z,26.33
2018-05-11T02:19:06.924Z,24.77
2018-05-11T02:21:36.071Z,23.50
2018-05-11T02:24:05.326Z,25.30
2018-05-11T02:26:34.468Z,25.93
2018-05-11T02:29:03.625Z,25.87
2018-05-11T02:31:32.751Z,26.13
2018-05-11T02:34:01.900Z,25.77
2018-05-11T02:36:31.113Z,25.77
2018-05-11T02:39:00.257Z,23.23
2018-05-11T02:41:29.381Z,24.47
2018-05-11T02:43:58.559Z,23.87
2018-05-11T02:46:27.688Z,24.80
2018-05-11T02:48:56.862Z,22.33
2018-05-11T02:51:25.992Z,23.70
2018-05-11T02:53:55.165Z,25.80
2018-05-11T02:56:24.312Z,24.10
2018-05-11T02:58:53.543Z,23.97
2018-05-11T03:01:22.696Z,24.57
2018-05-11T03:03:51.840Z,23.67
2018-05-11T03:06:20.980Z,24.20
2018-05-11T03:08:50.222Z,25.50
2018-05-11T03:11:19.462Z,24.67
2018-05-11T03:13:48.609Z,24.20
2018-05-11T03:16:17.747Z,25.07
2018-05-11T03:18:46.905Z,24.90
2018-05-11T03:21:16.036Z,26.20
2018-05-11T03:23:46.354Z,26.43
2018-05-11T03:26:15.548Z,25.57
2018-05-11T03:28:44.724Z,26.13
2018-05-11T03:31:13.897Z,28.20
2018-05-11T03:33:43.068Z,25.47
2018-05-11T03:36:12.263Z,26.50
2018-05-11T03:38:41.404Z,26.80
2018-05-11T03:41:10.580Z,23.60
2018-05-11T03:43:39.730Z,24.67
2018-05-11T03:46:08.872Z,26.90
2018-05-11T03:48:38.031Z,24.30
2018-05-11T03:51:07.145Z,25.37
2018-05-11T03:53:36.333Z,25.80
2018-05-11T03:56:05.472Z,25.60
2018-05-11T03:58:34.623Z,26.00
2018-05-11T04:01:03.797Z,25.60
2018-05-11T04:03:38.684Z,25.80
2018-05-11T04:06:07.860Z,25.07
2018-05-11T04:08:44.217Z,26.80
2018-05-11T04:11:13.384Z,27.63
2018-05-11T04:13:42.536Z,25.30
2018-05-11T04:16:11.653Z,24.10
2018-05-11T04:18:40.837Z,23.70
2018-05-11T04:21:09.954Z,22.40
2018-05-11T04:23:39.072Z,23.30
2018-05-11T04:26:08.219Z,25.60
2018-05-11T04:28:37.347Z,22.87
2018-05-11T04:31:06.488Z,25.67
2018-05-11T04:33:35.599Z,24.10
2018-05-11T04:36:04.800Z,24.47
2018-05-11T04:38:33.966Z,26.63
2018-05-11T04:41:03.635Z,25.50
2018-05-11T04:43:32.776Z,26.27
2018-05-11T04:46:01.927Z,23.90
2018-05-11T04:48:31.054Z,22.90
2018-05-11T04:51:00.196Z,23.33
2018-05-11T04:53:29.341Z,23.47
2018-05-11T04:55:58.491Z,23.37
2018-05-11T04:58:27.655Z,23.37
2018-05-11T05:00:57.328Z,22.50
2018-05-11T05:03:26.435Z,23.90
2018-05-11T05:05:55.564Z,22.60
2018-05-11T05:08:24.763Z,21.77
2018-05-11T05:10:53.881Z,22.60
2018-05-11T05:13:23.033Z,21.60
2018-05-11T05:15:52.179Z,22.10
2018-05-11T05:18:21.315Z,18.80
2018-05-11T05:20:50.481Z,19.70
2018-05-11T05:23:19.635Z,20.80
2018-05-11T05:25:48.796Z,20.50
2018-05-11T05:28:18.681Z,20.93
2018-05-11T05:30:47.876Z,21.27
2018-05-11T05:33:17.000Z,22.37
2018-05-11T05:35:46.144Z,25.27
2018-05-11T05:38:15.289Z,25.43
2018-05-11T05:40:44.441Z,26.50
2018-05-11T05:43:13.611Z,22.57
2018-05-11T05:45:42.748Z,24.83
2018-05-11T05:48:11.907Z,26.13
2018-05-11T05:50:41.029Z,25.83
2018-05-11T05:53:10.212Z,20.20
2018-05-11T05:55:39.371Z,33.87
2018-05-11T05:58:08.563Z,48.13
2018-05-11T06:00:37.734Z,25.67
2018-05-11T06:03:07.050Z,23.73
2018-05-11T06:05:36.216Z,20.70
2018-05-11T06:08:05.351Z,22.03
2018-05-11T06:10:34.505Z,16.50
2018-05-11T06:13:03.712Z,15.00
2018-05-11T06:15:32.951Z,18.33
2018-05-11T06:18:02.065Z,24.80
2018-05-11T06:20:31.257Z,28.10
2018-05-11T06:23:00.474Z,20.77
2018-05-11T06:25:29.642Z,13.07
2018-05-11T06:27:58.773Z,14.43
2018-05-11T06:30:27.981Z,11.97
2018-05-11T06:32:57.123Z,14.77
2018-05-11T06:35:26.465Z,17.90
2018-05-11T06:37:55.676Z,19.73
2018-05-11T06:40:25.184Z,23.10
2018-05-11T06:42:54.335Z,11.70
2018-05-11T06:45:23.574Z,12.10
2018-05-11T06:47:52.747Z,12.20
2018-05-11T06:50:21.899Z,12.13
2018-05-11T06:52:51.060Z,13.13
2018-05-11T06:55:20.223Z,12.83
2018-05-11T06:57:49.612Z,13.13
2018-05-11T07:00:18.791Z,14.50
2018-05-11T07:02:47.943Z,13.63
2018-05-11T07:05:17.097Z,15.23
2018-05-11T07:07:46.275Z,15.77
2018-05-11T07:10:15.592Z,14.30
2018-05-11T07:12:44.731Z,15.20
2018-05-11T07:15:13.861Z,15.87
2018-05-11T07:17:42.986Z,15.47
2018-05-11T07:20:12.180Z,16.33
2018-05-11T07:22:41.389Z,17.43
2018-05-11T07:25:10.512Z,18.80
2018-05-11T07:27:39.655Z,17.80
2018-05-11T07:30:08.842Z,15.67
2018-05-11T07:32:38.047Z,15.97
2018-05-11T07:35:07.164Z,17.07
2018-05-11T07:37:36.318Z,18.50
2018-05-11T07:40:05.501Z,17.97
2018-05-11T07:42:35.176Z,24.63
2018-05-11T07:45:04.296Z,25.83
2018-05-11T07:47:33.441Z,27.13
2018-05-11T07:50:02.589Z,31.40
2018-05-11T07:52:31.750Z,27.37
2018-05-11T07:55:00.877Z,29.37
2018-05-11T07:57:30.026Z,28.70
2018-05-11T07:59:59.167Z,29.53
2018-05-11T08:02:28.325Z,27.00
2018-05-11T08:04:57.451Z,28.40
2018-05-11T08:07:26.592Z,27.80
2018-05-11T08:09:55.730Z,26.97
2018-05-11T08:12:24.862Z,28.30
2018-05-11T08:14:54.006Z,25.60
2018-05-11T08:17:23.144Z,24.73
2018-05-11T08:19:52.282Z,27.60
2018-05-11T08:22:21.455Z,24.13
2018-05-11T08:24:50.569Z,22.97
2018-05-11T08:27:19.742Z,23.30
2018-05-11T08:29:48.933Z,24.03
2018-05-11T08:32:18.073Z,23.63
2018-05-11T08:34:47.213Z,24.17
2018-05-11T08:37:16.366Z,24.40
2018-05-11T08:39:45.542Z,24.30
2018-05-11T08:42:14.679Z,25.37
2018-05-11T08:44:45.299Z,23.93
2018-05-11T08:47:14.444Z,22.50
2018-05-11T08:49:43.593Z,24.17
2018-05-11T08:52:12.757Z,23.03
2018-05-11T08:54:41.913Z,22.60
2018-05-11T08:57:11.073Z,25.00
2018-05-11T08:59:40.209Z,23.10
2018-05-11T09:02:09.320Z,25.80
2018-05-11T09:04:39.072Z,23.00
2018-05-11T09:07:08.239Z,22.13
2018-05-11T09:09:37.413Z,23.30
2018-05-11T09:12:06.565Z,25.70
2018-05-11T09:14:35.701Z,22.00
2018-05-11T09:17:04.845Z,20.20
2018-05-11T09:19:34.005Z,23.73
2018-05-11T09:22:03.292Z,24.30
2018-05-11T09:24:32.415Z,25.70
2018-05-11T09:27:01.565Z,29.20
2018-05-11T09:29:30.710Z,24.67
2018-05-11T09:34:48.081Z,25.20
2018-05-11T09:37:17.234Z,25.50
2018-05-11T09:39:46.478Z,25.10
2018-05-11T09:42:15.495Z,24.73
2018-05-11T09:44:44.631Z,28.03
2018-05-11T09:47:13.817Z,26.80
2018-05-11T09:49:42.967Z,26.50
2018-05-11T09:52:12.122Z,26.23
2018-05-11T09:54:41.242Z,24.27
2018-05-11T09:57:10.417Z,24.63
2018-05-11T09:59:39.567Z,25.47
2018-05-11T10:02:08.748Z,24.97
2018-05-11T10:04:37.920Z,26.63
2018-05-11T10:07:07.080Z,26.93
2018-05-11T10:09:36.209Z,26.40
2018-05-11T10:12:05.385Z,26.03
2018-05-11T10:14:34.529Z,24.63
2018-05-11T10:17:03.773Z,24.80
2018-05-11T10:19:32.952Z,25.67
2018-05-11T10:22:02.077Z,25.30
2018-05-11T10:24:31.219Z,25.13
2018-05-11T10:27:00.398Z,23.80
2018-05-11T10:29:29.544Z,26.90
2018-05-11T10:31:58.691Z,25.30
2018-05-11T10:34:27.845Z,23.33
2018-05-11T10:36:56.959Z,23.97
2018-05-11T10:39:26.088Z,24.83
2018-05-11T10:41:55.283Z,24.30
2018-05-11T10:44:24.434Z,23.20
2018-05-11T10:46:54.893Z,24.70
2018-05-11T10:49:24.053Z,25.63
2018-05-11T10:51:53.176Z,24.40
2018-05-11T10:54:22.333Z,25.10
2018-05-11T10:56:51.525Z,23.17
2018-05-11T10:59:20.775Z,25.10
2018-05-11T11:01:49.980Z,26.03
2018-05-11T11:04:19.141Z,24.40
2018-05-11T11:06:48.280Z,25.07
2018-05-11T11:09:17.497Z,25.30
2018-05-11T11:11:46.739Z,22.73
2018-05-11T11:14:15.888Z,21.17
2018-05-11T11:16:45.045Z,20.17
2018-05-11T11:19:14.231Z,24.57
2018-05-11T11:21:43.345Z,23.77
2018-05-11T11:24:12.482Z,23.13
2018-05-11T11:26:41.857Z,24.07
2018-05-11T11:29:10.995Z,24.47
2018-05-11T11:31:40.130Z,22.40
2018-05-11T11:34:09.319Z,21.93
2018-05-11T11:36:38.643Z,21.07
2018-05-11T11:39:07.767Z,21.13
2018-05-11T11:41:36.916Z,21.40
2018-05-11T11:44:06.121Z,24.97
2018-05-11T11:46:35.292Z,25.00
2018-05-11T11:49:04.431Z,21.43
2018-05-11T11:51:33.596Z,20.93
2018-05-11T11:54:02.710Z,24.60
2018-05-11T11:56:31.877Z,22.47
2018-05-11T11:59:01.044Z,22.20
2018-05-11T12:01:30.267Z,21.97
2018-05-11T12:03:59.737Z,21.27
2018-05-11T12:06:28.888Z,19.57
2018-05-11T12:08:58.062Z,20.50
2018-05-11T12:11:27.167Z,19.87
2018-05-11T12:13:56.334Z,22.53
2018-05-11T12:16:25.472Z,22.40
2018-05-11T12:18:54.623Z,22.43
2018-05-11T12:21:23.775Z,21.40
2018-05-11T12:23:52.938Z,21.10
2018-05-11T12:26:22.168Z,22.37
2018-05-11T12:28:51.248Z,25.07
2018-05-11T12:31:20.393Z,25.40
2018-05-11T12:33:49.576Z,21.40
2018-05-11T12:36:18.732Z,20.57
2018-05-11T12:38:47.856Z,22.37
2018-05-11T12:41:17.081Z,26.10
2018-05-11T12:43:46.302Z,24.53
2018-05-11T12:46:15.359Z,25.67
2018-05-11T12:48:45.001Z,24.40
2018-05-11T12:51:14.131Z,25.00
2018-05-11T12:53:43.261Z,23.60
2018-05-11T12:56:12.424Z,22.23
2018-05-11T12:58:41.586Z,23.37
2018-05-11T13:01:10.728Z,23.47
2018-05-11T13:03:39.911Z,27.60
2018-05-11T13:06:09.074Z,23.93
2018-05-11T13:08:38.229Z,24.50
2018-05-11T13:11:07.407Z,21.77
2018-05-11T13:13:36.531Z,21.93
2018-05-11T13:16:05.656Z,22.57
2018-05-11T13:18:34.879Z,22.17
2018-05-11T13:21:04.043Z,20.83
2018-05-11T13:23:33.187Z,23.63
2018-05-11T13:26:02.365Z,22.40
2018-05-11T13:28:31.557Z,20.93
2018-05-11T13:31:00.678Z,24.77
2018-05-11T13:33:29.821Z,24.17
2018-05-11T13:35:58.971Z,23.60
2018-05-11T13:38:28.104Z,21.97
2018-05-11T13:40:57.267Z,22.13
2018-05-11T13:43:26.408Z,24.40
2018-05-11T13:45:55.537Z,25.00
2018-05-11T13:48:24.824Z,22.93
2018-05-11T13:50:53.864Z,21.13
2018-05-11T13:53:22.977Z,21.93
2018-05-11T13:55:52.143Z,24.83
2018-05-11T13:58:21.265Z,23.63
2018-05-11T14:00:50.459Z,21.70
2018-05-11T14:03:19.604Z,20.50
2018-05-11T14:05:48.759Z,22.10
2018-05-11T14:08:17.880Z,20.90
2018-05-11T14:10:47.010Z,23.30
2018-05-11T14:13:16.172Z,23.30
2018-05-11T14:15:45.300Z,24.60
2018-05-11T14:18:14.437Z,20.70
2018-05-11T14:20:43.615Z,22.77
2018-05-11T14:23:12.744Z,19.80
2018-05-11T14:25:41.897Z,21.13
2018-05-11T14:28:11.040Z,19.80
2018-05-11T14:30:40.211Z,21.73
2018-05-11T14:33:09.436Z,20.27
2018-05-11T14:35:38.558Z,20.90
2018-05-11T14:38:07.732Z,18.77
2018-05-11T14:40:36.885Z,18.07
2018-05-11T14:43:06.140Z,18.53
2018-05-11T14:45:35.305Z,19.83
2018-05-11T14:48:04.501Z,19.50
2018-05-11T14:50:33.648Z,21.30
2018-05-11T14:53:02.798Z,20.00
2018-05-11T14:55:31.953Z,20.17
2018-05-11T14:58:01.109Z,19.97
2018-05-11T15:00:30.273Z,20.30
2018-05-11T15:02:59.457Z,20.97
2018-05-11T15:05:28.568Z,20.60
2018-05-11T15:07:57.709Z,19.17
2018-05-11T15:10:26.964Z,19.57
2018-05-11T15:12:56.103Z,19.60
2018-05-11T15:15:25.261Z,18.43
2018-05-11T15:17:54.409Z,17.03
2018-05-11T15:20:23.566Z,18.00
2018-05-11T15:22:52.692Z,17.40
2018-05-11T15:25:21.895Z,16.73
2018-05-11T15:27:51.173Z,17.10
2018-05-11T15:30:20.311Z,18.30
2018-05-11T15:32:49.531Z,21.00
2018-05-11T15:35:18.694Z,20.03
2018-05-11T15:37:47.845Z,20.73
2018-05-11T15:40:17.011Z,21.90
2018-05-11T15:42:46.245Z,20.20
2018-05-11T15:45:15.517Z,20.57
2018-05-11T15:47:44.638Z,19.87
2018-05-11T15:50:14.110Z,22.80
2018-05-11T15:52:43.317Z,21.90
2018-05-11T15:55:12.494Z,21.30
2018-05-11T15:57:41.781Z,23.60
2018-05-11T16:00:10.922Z,21.93
2018-05-11T16:02:40.064Z,20.50
2018-05-11T16:05:09.288Z,21.07
2018-05-11T16:07:38.451Z,21.27
2018-05-11T16:10:07.599Z,21.60
2018-05-11T16:12:36.831Z,21.17
2018-05-11T16:15:05.996Z,21.10
2018-05-11T16:17:35.131Z,20.40
2018-05-11T16:20:04.310Z,19.57
2018-05-11T16:22:33.441Z,18.80
2018-05-11T16:25:02.627Z,20.27
2018-05-11T16:27:31.773Z,20.63
2018-05-11T16:30:00.924Z,21.30
2018-05-11T16:32:30.072Z,21.13
2018-05-11T16:34:59.299Z,22.30
2018-05-11T16:37:28.342Z,23.23
2018-05-11T16:39:57.500Z,23.13
2018-05-11T16:42:26.629Z,23.30
2018-05-11T16:44:55.748Z,23.30
2018-05-11T16:47:26.628Z,22.60
2018-05-11T16:49:55.777Z,23.20
2018-05-11T16:52:25.014Z,20.40
2018-05-11T16:54:54.192Z,22.73
2018-05-11T16:57:23.333Z,23.50
2018-05-11T16:59:52.479Z,23.63
2018-05-11T17:02:21.656Z,22.80
2018-05-11T17:04:50.771Z,23.03
2018-05-11T17:07:19.892Z,22.43
2018-05-11T17:09:49.087Z,23.80
2018-05-11T17:12:18.210Z,22.77
2018-05-11T17:14:47.347Z,25.30
2018-05-11T17:17:16.505Z,22.60
2018-05-11T17:19:45.647Z,23.33
2018-05-11T17:22:14.781Z,23.93
2018-05-11T17:24:43.955Z,22.77
2018-05-11T17:27:13.091Z,22.70
2018-05-11T17:29:42.229Z,22.20
2018-05-11T17:32:11.860Z,23.10
2018-05-11T17:34:40.981Z,23.40
2018-05-11T17:37:10.120Z,23.10
2018-05-11T17:39:39.284Z,23.73
2018-05-11T17:42:08.433Z,22.57
2018-05-11T17:44:37.572Z,24.00
2018-05-11T17:47:06.746Z,26.87
2018-05-11T17:49:36.035Z,25.60
2018-05-11T17:52:05.172Z,27.50
2018-05-11T17:54:34.316Z,25.73
2018-05-11T17:57:03.486Z,25.43
2018-05-11T17:59:32.634Z,27.30
2018-05-11T18:02:01.787Z,27.10
2018-05-11T18:04:30.951Z,26.70
2018-05-11T18:07:00.090Z,27.07
2018-05-11T18:09:29.249Z,29.63
2018-05-11T18:11:58.408Z,29.40
2018-05-11T18:14:27.538Z,30.73
2018-05-11T18:16:56.732Z,28.27
2018-05-11T18:19:25.875Z,27.93
2018-05-11T18:21:55.018Z,27.10
2018-05-11T18:24:24.175Z,30.50
2018-05-11T18:26:53.585Z,27.67
2018-05-11T18:29:22.735Z,28.80
2018-05-11T18:31:51.941Z,25.70
2018-05-11T18:34:21.120Z,25.87
2018-05-11T18:36:50.319Z,29.00
2018-05-11T18:39:19.522Z,26.83
2018-05-11T18:41:48.685Z,30.93
2018-05-11T18:44:17.889Z,28.47
2018-05-11T18:46:47.071Z,27.60
2018-05-11T18:49:16.261Z,28.60
2018-05-11T18:51:45.458Z,30.03
2018-05-11T18:54:15.009Z,30.17
2018-05-11T18:56:43.848Z,32.13
2018-05-11T18:59:13.025Z,31.73
2018-05-11T19:01:42.265Z,34.00
2018-05-11T19:04:11.357Z,34.77
2018-05-11T19:06:40.644Z,33.30
2018-05-11T19:09:09.775Z,36.00
2018-05-11T19:11:38.932Z,34.30
2018-05-11T19:14:08.132Z,29.60
2018-05-11T19:16:37.296Z,33.90
2018-05-11T19:19:06.466Z,31.03
2018-05-11T19:21:35.918Z,31.03
2018-05-11T19:24:05.262Z,32.10
2018-05-11T19:26:35.399Z,29.47
2018-05-11T19:29:04.633Z,30.43
2018-05-11T19:31:33.835Z,29.00
2018-05-11T19:34:03.033Z,33.17
2018-05-11T19:36:32.229Z,34.90
2018-05-11T19:39:01.355Z,32.70
2018-05-11T19:41:30.501Z,32.77
2018-05-11T19:43:59.656Z,36.83
2018-05-11T19:46:28.784Z,35.20
2018-05-11T19:48:57.916Z,32.87
2018-05-11T19:51:27.096Z,37.63
2018-05-11T19:53:56.271Z,38.43
2018-05-11T19:56:25.398Z,41.60
2018-05-11T19:58:54.597Z,38.07
2018-05-11T20:01:23.744Z,41.80
2018-05-11T20:03:52.878Z,41.40
2018-05-11T20:06:22.075Z,38.77
2018-05-11T20:08:51.194Z,35.20
2018-05-11T20:11:20.420Z,33.73
2018-05-11T20:13:49.585Z,34.20
2018-05-11T20:16:18.736Z,34.17
2018-05-11T20:18:47.872Z,34.93
2018-05-11T20:21:17.048Z,34.50
2018-05-11T20:23:46.193Z,33.50
2018-05-11T20:26:15.371Z,33.00
2018-05-11T20:28:44.559Z,38.57
2018-05-11T20:31:13.865Z,34.33
2018-05-11T20:33:43.008Z,39.87
2018-05-11T20:36:12.172Z,37.00
2018-05-11T20:38:41.367Z,38.30
2018-05-11T20:41:10.528Z,39.67
2018-05-11T20:43:39.676Z,40.10
2018-05-11T20:46:08.837Z,40.63
2018-05-11T20:48:37.977Z,43.53
2018-05-11T20:51:07.111Z,45.27
2018-05-11T20:53:36.316Z,47.20
2018-05-11T20:56:05.468Z,43.20
2018-05-11T20:58:34.620Z,39.20
2018-05-11T21:01:03.795Z,38.17
2018-05-11T21:03:32.951Z,36.30
2018-05-11T21:06:02.136Z,38.43
2018-05-11T21:08:31.270Z,39.93
2018-05-11T21:11:00.595Z,40.17
2018-05-11T21:13:29.780Z,39.50
2018-05-11T21:15:58.941Z,41.17
2018-05-11T21:18:28.108Z,40.37
2018-05-11T21:20:57.306Z,40.53
2018-05-11T21:23:26.452Z,57.97
2018-05-11T21:25:55.621Z,43.17
2018-05-11T21:28:24.817Z,59.93
2018-05-11T21:30:53.932Z,51.43
2018-05-11T21:33:23.097Z,48.80
2018-05-11T21:35:52.269Z,46.10
2018-05-11T21:38:21.416Z,45.63
2018-05-11T21:40:50.606Z,46.20
2018-05-11T21:43:19.766Z,47.10
2018-05-11T21:45:48.884Z,43.90
2018-05-11T21:48:18.008Z,42.00
2018-05-11T21:50:47.235Z,43.17
2018-05-11T21:53:16.368Z,43.13
2018-05-11T21:55:45.489Z,47.00
2018-05-11T21:58:14.628Z,53.60
2018-05-11T22:00:43.761Z,52.90
2018-05-11T22:03:13.245Z,48.70
2018-05-11T22:05:42.395Z,47.93
2018-05-11T22:08:11.556Z,49.80
2018-05-11T22:10:40.725Z,49.00
2018-05-11T22:13:10.330Z,46.57
2018-05-11T22:15:39.493Z,44.83
2018-05-11T22:18:08.638Z,46.23
2018-05-11T22:20:37.785Z,47.83
2018-05-11T22:23:06.928Z,48.63
2018-05-11T22:25:36.051Z,47.60
2018-05-11T22:28:05.197Z,49.30
2018-05-11T22:30:34.359Z,49.20
2018-05-11T22:33:03.503Z,52.40
2018-05-11T22:35:32.684Z,55.23
2018-05-11T22:38:01.844Z,53.37
2018-05-11T22:40:30.983Z,50.47
2018-05-11T22:43:00.481Z,51.83
2018-05-11T22:45:29.631Z,50.30
2018-05-11T22:47:58.775Z,51.60
2018-05-11T22:50:27.916Z,50.23
2018-05-11T22:52:57.069Z,51.13
2018-05-11T22:55:26.238Z,51.67
2018-05-11T22:57:55.381Z,52.50
2018-05-11T23:00:27.213Z,50.83
2018-05-11T23:02:56.353Z,50.97
2018-05-11T23:05:25.489Z,47.77
2018-05-11T23:07:54.676Z,53.10
2018-05-11T23:10:23.814Z,51.30
2018-05-11T23:12:53.064Z,50.73
2018-05-11T23:15:23.561Z,52.40
2018-05-11T23:17:52.711Z,52.47
2018-05-11T23:20:21.832Z,54.37
2018-05-11T23:22:51.012Z,53.10
2018-05-11T23:25:20.153Z,61.17
2018-05-11T23:27:49.286Z,141.13
2018-05-11T23:30:18.439Z,173.30
2018-05-11T23:32:47.586Z,214.03
2018-05-11T23:35:16.720Z,93.90
2018-05-11T23:37:45.888Z,54.17
2018-05-11T23:40:15.042Z,57.67
2018-05-11T23:42:44.191Z,52.80
2018-05-11T23:45:13.337Z,52.20
2018-05-11T23:47:42.522Z,50.27
2018-05-11T23:50:11.668Z,55.50
2018-05-11T23:52:40.789Z,54.77
2018-05-11T23:55:09.975Z,58.07
2018-05-11T23:57:39.106Z,60.37
